createdAt,value
2023-04-30T00:02:20.777Z,51.24
2023-04-30T00:04:47.969Z,51.34
2023-04-30T00:07:15.034Z,51.18
2023-04-30T00:09:42.164Z,51.42
2023-04-30T00:12:09.206Z,51.17
2023-04-30T00:14:36.918Z,51.39
2023-04-30T00:17:03.962Z,51.30
2023-04-30T00:19:31.026Z,51.44
2023-04-30T00:21:57.982Z,51.43
2023-04-30T00:24:24.926Z,51.61
2023-04-30T00:26:51.853Z,51.51
2023-04-30T00:29:18.825Z,51.61
2023-04-30T00:31:46.005Z,51.74
2023-04-30T00:34:13.048Z,51.72
2023-04-30T00:36:40.980Z,51.95
2023-04-30T00:39:08.113Z,52.09
2023-04-30T00:41:36.566Z,51.89
2023-04-30T00:44:03.669Z,51.84
2023-04-30T00:46:31.320Z,52.09
2023-04-30T00:48:58.746Z,51.91
2023-04-30T00:51:26.995Z,52.24
2023-04-30T00:53:54.448Z,52.18
2023-04-30T00:56:21.592Z,52.21
2023-04-30T00:58:51.436Z,52.42
2023-04-30T01:01:18.713Z,52.21
2023-04-30T01:03:46.425Z,52.27
2023-04-30T01:06:13.580Z,52.47
2023-04-30T01:08:40.852Z,52.45
2023-04-30T01:11:07.717Z,52.42
2023-04-30T01:14:03.688Z,52.52
2023-04-30T01:16:36.633Z,52.55
2023-04-30T01:19:29.928Z,52.67
2023-04-30T01:22:03.852Z,52.75
2023-04-30T01:24:39.945Z,52.77
2023-04-30T01:27:32.296Z,52.58
2023-04-30T01:30:02.396Z,52.66
2023-04-30T01:32:29.463Z,52.69
2023-04-30T01:34:56.520Z,52.76
2023-04-30T01:37:28.995Z,52.80
2023-04-30T01:40:14.338Z,52.83
2023-04-30T01:43:12.851Z,52.82
2023-04-30T01:46:08.744Z,52.86
2023-04-30T01:48:53.929Z,53.07
2023-04-30T01:51:28.839Z,53.02
2023-04-30T01:54:03.498Z,53.21
2023-04-30T01:56:54.209Z,53.00
2023-04-30T01:59:22.145Z,53.10
2023-04-30T02:01:49.138Z,53.08
2023-04-30T02:04:16.374Z,53.25
2023-04-30T02:06:43.355Z,53.13
2023-04-30T02:09:11.086Z,52.96
2023-04-30T02:11:38.122Z,52.94
2023-04-30T02:14:05.037Z,53.28
2023-04-30T02:16:32.168Z,53.21
2023-04-30T02:18:59.265Z,53.05
2023-04-30T02:21:27.480Z,53.21
2023-04-30T02:23:54.975Z,53.35
2023-04-30T02:26:22.042Z,53.28
2023-04-30T02:28:49.147Z,53.56
2023-04-30T02:31:16.166Z,53.36
2023-04-30T02:33:43.296Z,53.56
2023-04-30T02:36:10.809Z,53.27
2023-04-30T02:38:37.857Z,53.24
2023-04-30T02:41:04.891Z,53.42
2023-04-30T02:43:32.102Z,53.15
2023-04-30T02:45:59.246Z,53.50
2023-04-30T02:48:26.272Z,53.29
2023-04-30T02:50:53.310Z,53.44
2023-04-30T02:53:20.344Z,53.66
2023-04-30T02:55:47.594Z,53.40
2023-04-30T02:58:14.570Z,53.55
2023-04-30T03:00:41.931Z,53.64
2023-04-30T03:03:09.131Z,53.37
2023-04-30T03:05:36.425Z,53.59
2023-04-30T03:08:03.629Z,53.54
2023-04-30T03:10:30.725Z,53.50
2023-04-30T03:12:58.231Z,53.39
2023-04-30T03:15:25.219Z,53.92
2023-04-30T03:17:52.263Z,53.60
2023-04-30T03:20:19.397Z,53.45
2023-04-30T03:22:46.417Z,53.89
2023-04-30T03:25:13.397Z,53.73
2023-04-30T03:27:40.328Z,53.36
2023-04-30T03:30:08.054Z,53.53
2023-04-30T03:32:35.094Z,53.85
2023-04-30T03:35:02.061Z,53.72
2023-04-30T03:37:29.003Z,53.88
2023-04-30T03:39:56.190Z,53.89
2023-04-30T03:42:23.723Z,54.02
2023-04-30T03:44:51.043Z,53.82
2023-04-30T03:47:18.431Z,53.86
2023-04-30T03:49:45.599Z,54.23
2023-04-30T03:52:12.787Z,53.87
2023-04-30T03:54:39.922Z,54.21
2023-04-30T03:57:08.258Z,53.96
2023-04-30T03:59:35.647Z,53.98
2023-04-30T04:02:02.856Z,54.19
2023-04-30T04:04:30.919Z,54.05
2023-04-30T04:06:58.493Z,53.83
2023-04-30T04:09:26.037Z,53.97
2023-04-30T04:11:52.942Z,53.92
2023-04-30T04:14:19.942Z,53.57
2023-04-30T04:16:47.111Z,54.21
2023-04-30T04:19:16.780Z,53.95
2023-04-30T04:21:43.756Z,54.04
2023-04-30T04:24:10.845Z,54.02
2023-04-30T04:26:38.715Z,54.20
2023-04-30T04:29:05.775Z,54.05
2023-04-30T04:31:32.824Z,54.05
2023-04-30T04:34:01.226Z,53.69
2023-04-30T04:36:29.078Z,54.12
2023-04-30T04:38:58.029Z,54.14
2023-04-30T04:41:25.709Z,54.27
2023-04-30T04:43:53.206Z,54.21
2023-04-30T04:46:21.189Z,53.94
2023-04-30T04:48:48.291Z,54.17
2023-04-30T04:51:15.417Z,54.11
2023-04-30T04:53:42.347Z,54.23
2023-04-30T04:56:09.470Z,54.21
2023-04-30T04:58:36.609Z,54.38
2023-04-30T05:01:05.467Z,54.42
2023-04-30T05:03:33.984Z,54.42
2023-04-30T05:06:01.174Z,54.30
2023-04-30T05:08:28.162Z,54.50
2023-04-30T05:10:55.424Z,54.40
2023-04-30T05:13:22.467Z,54.47
2023-04-30T05:15:54.038Z,54.20
2023-04-30T05:18:21.187Z,54.08
2023-04-30T05:20:48.264Z,54.42
2023-04-30T05:23:15.245Z,54.32
2023-04-30T05:25:42.621Z,54.46
2023-04-30T05:28:09.601Z,54.56
2023-04-30T05:30:36.917Z,55.40
2023-04-30T05:33:04.049Z,55.44
2023-04-30T05:35:31.991Z,55.20
2023-04-30T05:37:59.009Z,55.25
2023-04-30T05:40:26.006Z,55.69
2023-04-30T05:42:53.027Z,55.64
2023-04-30T05:45:20.179Z,56.03
2023-04-30T05:47:47.280Z,55.83
2023-04-30T05:50:14.463Z,55.67
2023-04-30T05:52:41.483Z,55.51
2023-04-30T05:55:10.026Z,55.80
2023-04-30T05:57:37.156Z,55.34
2023-04-30T06:00:07.578Z,55.72
2023-04-30T06:02:34.669Z,55.79
2023-04-30T06:05:03.630Z,55.78
2023-04-30T06:07:31.106Z,55.68
2023-04-30T06:09:58.306Z,55.67
2023-04-30T06:12:25.439Z,55.60
2023-04-30T06:14:52.704Z,55.78
2023-04-30T06:17:20.058Z,55.20
2023-04-30T06:19:47.118Z,55.34
2023-04-30T06:22:14.149Z,55.45
2023-04-30T06:24:41.116Z,55.41
2023-04-30T06:27:08.087Z,55.43
2023-04-30T06:29:35.281Z,55.68
2023-04-30T06:32:02.453Z,55.67
2023-04-30T06:34:29.747Z,55.86
2023-04-30T06:36:57.127Z,55.64
2023-04-30T06:39:24.115Z,55.53
2023-04-30T06:41:51.251Z,55.83
2023-04-30T06:44:19.376Z,55.75
2023-04-30T06:46:46.509Z,55.63
2023-04-30T06:49:13.560Z,55.74
2023-04-30T06:51:43.392Z,56.27
2023-04-30T06:54:11.531Z,55.79
2023-04-30T06:56:39.886Z,55.20
2023-04-30T06:59:07.301Z,54.26
2023-04-30T07:01:34.505Z,54.48
2023-04-30T07:04:02.357Z,55.00
2023-04-30T07:06:29.755Z,55.32
2023-04-30T07:08:57.836Z,55.40
2023-04-30T07:11:24.856Z,55.65
2023-04-30T07:13:52.016Z,55.61
2023-04-30T07:16:19.140Z,55.45
2023-04-30T07:18:49.317Z,55.35
2023-04-30T07:21:16.631Z,55.42
2023-04-30T07:23:45.724Z,55.19
2023-04-30T07:26:13.308Z,55.36
2023-04-30T07:28:40.365Z,55.18
2023-04-30T07:31:08.216Z,55.30
2023-04-30T07:33:35.524Z,55.14
2023-04-30T07:36:02.615Z,55.37
2023-04-30T07:38:29.988Z,55.29
2023-04-30T07:41:00.213Z,55.12
2023-04-30T07:43:28.762Z,55.22
2023-04-30T07:45:57.149Z,55.03
2023-04-30T07:48:24.419Z,55.00
2023-04-30T07:50:52.931Z,54.94
2023-04-30T07:53:20.428Z,54.92
2023-04-30T07:55:48.246Z,54.88
2023-04-30T07:58:15.436Z,54.69
2023-04-30T08:00:42.479Z,55.16
2023-04-30T08:03:09.726Z,54.53
2023-04-30T08:05:37.049Z,54.28
2023-04-30T08:08:04.304Z,54.55
2023-04-30T08:10:32.469Z,54.65
2023-04-30T08:12:59.613Z,54.55
2023-04-30T08:15:28.728Z,54.54
2023-04-30T08:17:55.972Z,54.37
2023-04-30T08:20:23.952Z,54.19
2023-04-30T08:22:51.609Z,54.30
2023-04-30T08:25:18.698Z,54.02
2023-04-30T08:27:47.312Z,53.71
2023-04-30T08:30:14.606Z,53.32
2023-04-30T08:32:41.933Z,53.09
2023-04-30T08:35:09.662Z,53.04
2023-04-30T08:37:36.913Z,52.97
2023-04-30T08:40:05.098Z,52.81
2023-04-30T08:42:37.208Z,52.64
2023-04-30T08:45:05.558Z,52.65
2023-04-30T08:47:33.740Z,52.63
2023-04-30T08:50:00.957Z,52.56
2023-04-30T08:52:30.670Z,52.32
2023-04-30T08:55:01.487Z,52.27
2023-04-30T08:57:28.631Z,51.96
2023-04-30T08:59:56.072Z,51.69
2023-04-30T09:02:23.679Z,51.32
2023-04-30T09:04:51.074Z,51.77
2023-04-30T09:07:18.896Z,53.11
2023-04-30T09:09:45.905Z,51.98
2023-04-30T09:12:19.334Z,50.02
2023-04-30T09:15:04.935Z,49.43
2023-04-30T09:17:33.470Z,49.26
2023-04-30T09:20:14.376Z,49.33
2023-04-30T09:22:43.163Z,49.97
2023-04-30T09:25:11.653Z,49.24
2023-04-30T09:27:38.956Z,49.19
2023-04-30T09:30:08.388Z,49.41
2023-04-30T09:32:35.522Z,49.31
2023-04-30T09:35:02.611Z,49.07
2023-04-30T09:37:37.746Z,49.11
2023-04-30T09:40:05.565Z,49.06
2023-04-30T09:42:32.631Z,49.07
2023-04-30T09:44:59.775Z,49.05
2023-04-30T09:47:31.070Z,48.99
2023-04-30T09:50:00.645Z,49.17
2023-04-30T09:52:27.797Z,49.25
2023-04-30T09:54:55.034Z,49.15
2023-04-30T09:57:24.383Z,49.17
2023-04-30T09:59:53.479Z,48.79
2023-04-30T10:02:23.289Z,48.67
2023-04-30T10:04:58.623Z,48.86
2023-04-30T10:07:32.617Z,49.00
2023-04-30T10:10:05.601Z,49.27
2023-04-30T10:12:41.226Z,49.13
2023-04-30T10:15:24.269Z,49.55
2023-04-30T10:18:14.624Z,49.71
2023-04-30T10:20:42.854Z,49.29
2023-04-30T10:23:09.937Z,49.28
2023-04-30T10:25:39.279Z,49.20
2023-04-30T10:28:08.492Z,49.11
2023-04-30T10:30:36.818Z,49.41
2023-04-30T10:33:10.348Z,49.17
2023-04-30T10:36:13.923Z,49.12
2023-04-30T10:38:41.606Z,49.57
2023-04-30T10:41:09.927Z,49.55
2023-04-30T10:43:37.365Z,49.78
2023-04-30T10:46:05.159Z,50.03
2023-04-30T10:48:36.110Z,49.96
2023-04-30T10:51:03.097Z,49.94
2023-04-30T10:53:34.126Z,50.03
2023-04-30T10:56:07.052Z,50.45
2023-04-30T10:58:35.290Z,50.47
2023-04-30T11:01:16.341Z,50.68
2023-04-30T11:04:04.033Z,50.50
2023-04-30T11:06:51.127Z,51.09
2023-04-30T11:09:18.286Z,50.90
2023-04-30T11:11:47.280Z,50.97
2023-04-30T11:14:21.270Z,51.14
2023-04-30T11:16:54.248Z,51.15
2023-04-30T11:19:25.245Z,51.14
2023-04-30T11:22:04.189Z,51.51
2023-04-30T11:24:59.586Z,51.59
2023-04-30T11:27:29.236Z,51.48
2023-04-30T11:29:59.568Z,51.04
2023-04-30T11:32:33.631Z,50.94
2023-04-30T11:35:02.523Z,50.81
2023-04-30T11:37:46.764Z,51.52
2023-04-30T11:40:15.134Z,51.30
2023-04-30T11:42:48.641Z,51.58
2023-04-30T11:45:18.138Z,51.91
2023-04-30T11:47:50.974Z,51.70
2023-04-30T11:50:27.762Z,51.87
2023-04-30T11:52:58.594Z,51.50
2023-04-30T11:55:27.021Z,51.56
2023-04-30T11:57:56.329Z,51.87
2023-04-30T12:00:29.054Z,51.59
2023-04-30T12:02:57.356Z,51.47
2023-04-30T12:05:26.994Z,51.69
2023-04-30T12:07:57.375Z,51.56
2023-04-30T12:10:26.236Z,51.80
2023-04-30T12:12:55.024Z,51.38
2023-04-30T12:15:27.514Z,51.66
2023-04-30T12:17:56.750Z,51.71
2023-04-30T12:20:27.179Z,51.96
2023-04-30T12:22:54.718Z,52.06
2023-04-30T12:25:23.380Z,51.89
2023-04-30T12:27:53.148Z,52.71
2023-04-30T12:30:22.037Z,52.86
2023-04-30T12:32:53.684Z,53.13
2023-04-30T12:35:23.886Z,52.78
2023-04-30T12:38:02.256Z,53.18
2023-04-30T12:40:29.321Z,53.48
2023-04-30T12:43:07.072Z,53.16
2023-04-30T12:45:52.432Z,53.17
2023-04-30T12:48:22.046Z,53.19
2023-04-30T12:50:56.929Z,53.71
2023-04-30T12:53:24.492Z,53.25
2023-04-30T12:56:15.708Z,53.30
2023-04-30T12:58:45.934Z,53.36
2023-04-30T13:01:14.040Z,53.36
2023-04-30T13:03:41.697Z,53.11
2023-04-30T13:06:10.603Z,53.04
2023-04-30T13:08:49.849Z,53.30
2023-04-30T13:11:24.740Z,53.10
2023-04-30T13:13:52.169Z,53.05
2023-04-30T13:16:19.461Z,52.80
2023-04-30T13:18:47.367Z,53.10
2023-04-30T13:21:14.427Z,53.23
2023-04-30T13:23:51.941Z,52.90
2023-04-30T13:26:20.892Z,52.76
2023-04-30T13:28:48.119Z,52.76
2023-04-30T13:31:15.218Z,53.06
2023-04-30T13:33:42.645Z,53.00
2023-04-30T13:36:10.335Z,53.07
2023-04-30T13:38:37.467Z,52.93
2023-04-30T13:41:04.648Z,53.35
2023-04-30T13:43:31.832Z,53.37
2023-04-30T13:45:59.324Z,53.57
2023-04-30T13:48:26.431Z,53.20
2023-04-30T13:50:53.525Z,53.39
2023-04-30T13:53:20.495Z,53.34
2023-04-30T13:55:47.583Z,53.21
2023-04-30T13:58:14.996Z,53.27
2023-04-30T14:00:42.145Z,53.48
2023-04-30T14:03:11.930Z,53.58
2023-04-30T14:05:39.752Z,53.23
2023-04-30T14:08:07.315Z,53.44
2023-04-30T14:10:34.373Z,53.12
2023-04-30T14:13:01.367Z,53.11
2023-04-30T14:15:30.973Z,52.85
2023-04-30T14:17:58.572Z,52.79
2023-04-30T14:20:26.055Z,53.57
2023-04-30T14:22:53.363Z,53.44
2023-04-30T14:25:20.761Z,53.58
2023-04-30T14:27:48.013Z,53.01
2023-04-30T14:30:15.341Z,53.21
2023-04-30T14:32:42.484Z,53.06
2023-04-30T14:35:10.229Z,52.94
2023-04-30T14:37:37.234Z,52.96
2023-04-30T14:40:07.021Z,52.97
2023-04-30T14:42:34.351Z,53.17
2023-04-30T14:45:01.442Z,53.21
2023-04-30T14:47:29.027Z,53.09
2023-04-30T14:49:57.497Z,53.63
2023-04-30T14:52:25.097Z,53.07
2023-04-30T14:54:52.221Z,53.22
2023-04-30T14:57:19.594Z,53.29
2023-04-30T14:59:46.971Z,53.46
2023-04-30T15:02:14.748Z,53.48
2023-04-30T15:04:46.186Z,53.43
2023-04-30T15:07:13.526Z,53.40
2023-04-30T15:09:40.673Z,53.83
2023-04-30T15:12:07.949Z,53.48
2023-04-30T15:14:34.834Z,53.30
2023-04-30T15:17:02.111Z,52.97
2023-04-30T15:19:30.261Z,53.17
2023-04-30T15:21:57.219Z,53.19
2023-04-30T15:24:24.371Z,53.38
2023-04-30T15:26:54.880Z,53.98
2023-04-30T15:29:22.089Z,54.19
2023-04-30T15:31:52.306Z,54.50
2023-04-30T15:34:20.812Z,54.69
2023-04-30T15:36:48.356Z,55.44
2023-04-30T15:39:15.874Z,55.31
2023-04-30T15:41:45.114Z,55.04
2023-04-30T15:44:14.554Z,54.53
2023-04-30T15:46:42.879Z,54.54
2023-04-30T15:49:10.825Z,54.84
2023-04-30T15:51:39.022Z,54.38
2023-04-30T15:54:11.627Z,54.75
2023-04-30T15:56:38.938Z,54.31
2023-04-30T15:59:06.767Z,54.12
2023-04-30T16:01:34.196Z,54.28
2023-04-30T16:04:02.009Z,54.45
2023-04-30T16:06:32.922Z,54.38
2023-04-30T16:09:00.132Z,54.35
2023-04-30T16:11:27.227Z,54.80
2023-04-30T16:13:55.010Z,54.59
2023-04-30T16:16:23.665Z,54.64
2023-04-30T16:18:51.387Z,54.64
2023-04-30T16:21:18.516Z,54.59
2023-04-30T16:23:48.027Z,54.43
2023-04-30T16:26:19.666Z,54.49
2023-04-30T16:28:50.307Z,54.41
2023-04-30T16:31:18.826Z,55.58
2023-04-30T16:33:46.054Z,55.11
2023-04-30T16:36:13.209Z,55.24
2023-04-30T16:38:40.287Z,54.88
2023-04-30T16:41:07.344Z,55.00
2023-04-30T16:43:34.411Z,54.62
2023-04-30T16:46:01.482Z,54.41
2023-04-30T16:48:28.701Z,54.54
2023-04-30T16:50:55.917Z,54.88
2023-04-30T16:53:23.079Z,55.00
2023-04-30T16:55:52.007Z,54.84
2023-04-30T16:58:19.385Z,54.55
2023-04-30T17:00:46.489Z,54.61
2023-04-30T17:03:14.008Z,54.91
2023-04-30T17:05:41.712Z,55.07
2023-04-30T17:08:09.054Z,55.35
2023-04-30T17:10:36.421Z,54.87
2023-04-30T17:13:06.105Z,55.01
2023-04-30T17:15:33.477Z,54.78
2023-04-30T17:18:08.365Z,54.74
2023-04-30T17:20:35.897Z,54.45
2023-04-30T17:23:03.660Z,54.36
2023-04-30T17:25:32.358Z,55.06
2023-04-30T17:28:02.710Z,55.23
2023-04-30T17:30:29.946Z,55.19
2023-04-30T17:32:57.220Z,55.18
2023-04-30T17:35:24.427Z,55.37
2023-04-30T17:37:51.842Z,55.71
2023-04-30T17:40:19.056Z,55.39
2023-04-30T17:42:46.790Z,55.54
2023-04-30T17:45:14.782Z,55.33
2023-04-30T17:47:42.359Z,55.99
2023-04-30T17:50:10.024Z,54.92
2023-04-30T17:52:39.137Z,55.20
2023-04-30T17:55:08.840Z,55.09
2023-04-30T17:57:39.454Z,54.92
2023-04-30T18:00:08.300Z,55.41
2023-04-30T18:02:35.854Z,56.39
2023-04-30T18:05:03.320Z,56.78
2023-04-30T18:07:30.551Z,56.24
2023-04-30T18:09:58.273Z,55.51
2023-04-30T18:12:26.112Z,55.45
2023-04-30T18:14:53.673Z,55.21
2023-04-30T18:17:20.654Z,55.56
2023-04-30T18:19:49.687Z,55.10
2023-04-30T18:22:16.757Z,54.70
2023-04-30T18:24:44.063Z,55.44
2023-04-30T18:27:11.344Z,55.21
2023-04-30T18:29:38.733Z,55.60
2023-04-30T18:32:06.307Z,55.45
2023-04-30T18:34:33.817Z,55.73
2023-04-30T18:37:01.302Z,55.99
2023-04-30T18:39:28.740Z,56.04
2023-04-30T18:41:56.340Z,55.99
2023-04-30T18:44:34.833Z,56.20
2023-04-30T18:47:02.088Z,56.11
2023-04-30T18:49:29.354Z,56.10
2023-04-30T18:51:57.080Z,56.05
2023-04-30T18:54:24.472Z,55.45
2023-04-30T18:56:51.740Z,55.62
2023-04-30T18:59:19.747Z,55.54
2023-04-30T19:01:47.160Z,55.47
2023-04-30T19:04:17.561Z,55.31
2023-04-30T19:06:46.716Z,55.07
2023-04-30T19:09:15.859Z,55.16
2023-04-30T19:11:42.995Z,54.62
2023-04-30T19:14:10.860Z,54.73
2023-04-30T19:16:39.097Z,54.66
2023-04-30T19:19:06.445Z,54.70
2023-04-30T19:21:36.828Z,54.42
2023-04-30T19:24:07.863Z,54.36
2023-04-30T19:26:37.963Z,54.12
2023-04-30T19:29:05.753Z,54.07
2023-04-30T19:31:38.290Z,54.07
2023-04-30T19:34:08.270Z,53.76
2023-04-30T19:36:35.574Z,53.60
2023-04-30T19:39:05.009Z,53.98
2023-04-30T19:41:32.910Z,54.04
2023-04-30T19:44:00.192Z,53.61
2023-04-30T19:46:27.739Z,54.23
2023-04-30T19:48:55.945Z,54.01
2023-04-30T19:51:23.617Z,53.78
2023-04-30T19:53:52.922Z,54.41
2023-04-30T19:56:23.103Z,53.92
2023-04-30T19:58:51.720Z,53.96
2023-04-30T20:01:19.407Z,54.28
2023-04-30T20:03:48.050Z,54.27
2023-04-30T20:06:15.956Z,54.28
2023-04-30T20:08:44.560Z,54.29
2023-04-30T20:11:11.851Z,53.85
2023-04-30T20:13:39.168Z,53.85
2023-04-30T20:16:06.880Z,54.09
2023-04-30T20:18:35.159Z,54.40
2023-04-30T20:21:02.834Z,54.02
2023-04-30T20:23:31.931Z,54.11
2023-04-30T20:26:00.173Z,53.99
2023-04-30T20:28:27.465Z,53.75
2023-04-30T20:30:56.553Z,54.12
2023-04-30T20:33:26.198Z,53.96
2023-04-30T20:35:53.620Z,53.99
2023-04-30T20:38:22.632Z,54.08
2023-04-30T20:40:51.068Z,54.07
2023-04-30T20:43:19.697Z,53.80
2023-04-30T20:45:47.314Z,54.17
2023-04-30T20:48:15.339Z,53.74
2023-04-30T20:50:42.635Z,53.66
2023-04-30T20:53:11.284Z,53.61
2023-04-30T20:55:39.294Z,53.41
2023-04-30T20:58:08.494Z,53.48
2023-04-30T21:00:36.801Z,53.55
2023-04-30T21:03:06.459Z,54.08
2023-04-30T21:05:36.397Z,53.91
2023-04-30T21:08:06.572Z,53.90
2023-04-30T21:10:37.022Z,53.99
2023-04-30T21:13:06.499Z,53.58
2023-04-30T21:15:36.273Z,53.49
2023-04-30T21:18:03.829Z,53.77
2023-04-30T21:20:32.256Z,53.99
2023-04-30T21:23:01.248Z,53.95
2023-04-30T21:25:29.705Z,54.09
2023-04-30T21:27:57.862Z,54.18
2023-04-30T21:30:26.939Z,54.06
2023-04-30T21:32:59.185Z,54.10
2023-04-30T21:35:28.084Z,54.33
2023-04-30T21:37:55.693Z,54.25
2023-04-30T21:40:22.955Z,54.15
2023-04-30T21:42:51.649Z,54.36
2023-04-30T21:45:19.123Z,54.20
2023-04-30T21:47:49.042Z,54.27
2023-04-30T21:50:16.661Z,54.44
2023-04-30T21:52:44.828Z,54.40
2023-04-30T21:55:13.067Z,54.60
2023-04-30T21:57:40.529Z,54.50
2023-04-30T22:00:09.294Z,54.58
2023-04-30T22:02:36.879Z,54.61
2023-04-30T22:05:05.350Z,54.54
2023-04-30T22:07:32.703Z,54.73
2023-04-30T22:10:01.317Z,54.71
2023-04-30T22:12:28.674Z,54.66
2023-04-30T22:14:56.348Z,54.82
2023-04-30T22:17:24.017Z,54.95
2023-04-30T22:19:51.498Z,54.77
2023-04-30T22:22:18.719Z,54.99
2023-04-30T22:24:47.261Z,54.98
2023-04-30T22:27:15.372Z,55.07
2023-04-30T22:29:47.219Z,54.72
2023-04-30T22:32:15.426Z,55.01
2023-04-30T22:34:43.804Z,55.03
2023-04-30T22:37:11.791Z,54.95
2023-04-30T22:39:40.286Z,55.24
2023-04-30T22:42:10.003Z,55.07
2023-04-30T22:44:38.174Z,55.31
2023-04-30T22:47:06.523Z,55.19
2023-04-30T22:49:35.611Z,55.20
2023-04-30T22:52:02.767Z,55.19
2023-04-30T22:54:29.873Z,55.39
2023-04-30T22:56:57.636Z,55.34
2023-04-30T22:59:24.865Z,55.38
2023-04-30T23:01:52.074Z,55.22
2023-04-30T23:04:19.495Z,55.31
2023-04-30T23:06:47.312Z,55.28
2023-04-30T23:09:16.249Z,55.40
2023-04-30T23:11:43.596Z,55.38
2023-04-30T23:14:11.066Z,55.60
2023-04-30T23:16:40.596Z,55.48
2023-04-30T23:19:07.993Z,55.53
2023-04-30T23:21:35.576Z,55.56
2023-04-30T23:24:04.424Z,55.51
2023-04-30T23:26:31.634Z,55.61
2023-04-30T23:28:58.731Z,55.53
2023-04-30T23:31:26.003Z,55.49
2023-04-30T23:33:53.111Z,55.55
2023-04-30T23:36:21.130Z,55.65
2023-04-30T23:38:48.474Z,55.75
2023-04-30T23:41:15.750Z,55.74
2023-04-30T23:43:43.028Z,55.86
2023-04-30T23:46:10.227Z,55.95
2023-04-30T23:48:37.835Z,55.76
2023-04-30T23:51:05.935Z,55.96
2023-04-30T23:53:33.116Z,55.95
2023-04-30T23:56:00.404Z,55.83
2023-04-30T23:58:30.575Z,55.92
